This is the latest recevied weather packets stored in our database for station/object AA8FM-13. If no packets are shown the sender has not sent any weather packets the latest 10 day(s).
| Time | Temp. | Humidity | Pressure | Rain* | Wind** | Luminosity | Snow |
|---|---|---|---|---|---|---|---|
| 1777923259 | 21.67° C | 49% | 1006.7 hPa | 0 mm | - | 611 W/m² | - |
| 1777922958 | 21.11° C | 52% | 1006.6 hPa | 0 mm | - | 583 W/m² | - |
| 1777922655 | 22.22° C | 52% | 1006.8 hPa | 0 mm | - | 212 W/m² | - |
| 1777922354 | 21.67° C | 50% | 1006.6 hPa | 0 mm | - | 573 W/m² | - |
| 1777922051 | 22.78° C | 50% | 1006.8 hPa | 0 mm | - | 581 W/m² | - |
| 1777921746 | 21.67° C | 52% | 1006.6 hPa | 0 mm | - | 647 W/m² | - |
| 1777921442 | 21.67° C | 54% | 1006.6 hPa | 0 mm | - | 635 W/m² | - |
| 1777921139 | 21.67° C | 51% | 1007.2 hPa | 0 mm | - | 607 W/m² | - |
| 1777920836 | 21.11° C | 53% | 1007.2 hPa | 0 mm | - | 617 W/m² | - |
| 1777920532 | 21.67° C | 52% | 1007.3 hPa | 0 mm | - | 634 W/m² | - |
| 1777920228 | 21.11° C | 53% | 1007.3 hPa | 0 mm | - | 629 W/m² | - |
| 1777919924 | 21.67° C | 51% | 1007.3 hPa | 0 mm | - | 633 W/m² | - |
| 1777919622 | 21.11° C | 54% | 1007.4 hPa | 0 mm | - | 638 W/m² | - |
| 1777919319 | 21.11° C | 52% | 1007.6 hPa | 0 mm | - | 645 W/m² | - |
| 1777919017 | 20.56° C | 55% | 1007.5 hPa | 0 mm | - | 654 W/m² | - |
| 1777918713 | 20.56° C | 55% | 1007.7 hPa | 0 mm | - | 569 W/m² | - |
| 1777918411 | 20.56° C | 54% | 1007.8 hPa | 0 mm | - | 677 W/m² | - |
| 1777918110 | 20° C | 55% | 1007.7 hPa | 0 mm | - | 687 W/m² | - |
| 1777917808 | 20° C | 56% | 1007.7 hPa | 0 mm | - | 668 W/m² | - |
| 1777917506 | 20° C | 56% | 1007.9 hPa | 0 mm | - | 700 W/m² | - |
| 1777917202 | 20.56° C | 55% | 1008 hPa | 0 mm | - | 691 W/m² | - |
| 1777916901 | 20° C | 56% | 1007.9 hPa | 0 mm | - | 678 W/m² | - |
| 1777916597 | 19.44° C | 56% | 1008.1 hPa | 0 mm | - | 677 W/m² | - |
| 1777916294 | 20° C | 56% | 1008.1 hPa | 0 mm | - | 681 W/m² | - |
| 1777915991 | 20° C | 58% | 1008.1 hPa | 0 mm | - | 675 W/m² | - |
* Rain latest hour (hover to see other rain measurements)
** Current wind speed in m/s (hover to see current wind gust speed)